Time;durP1;ratioP1;P1;durP2;ratioP2;P2;SDS_P1;SDS_P2;PMS_P1;PMS_P2;Temp;Humidity;BMP_temperature;BMP_pressure;BME280_temperature;BME280_humidity;BME280_pressure;Samples;Min_cycle;Max_cycle;Signal;HPM_P1;HPM_P2
2021/06/10 00:02:17;;;;;;;12.30;9.93;;;;;;;16.30;76.31;97155.66;4896833;29;20112;-77
2021/06/10 00:04:44;;;;;;;10.32;9.32;;;;;;;16.27;76.09;97154.25;4896677;29;20056;-77
2021/06/10 00:07:12;;;;;;;10.45;9.45;;;;;;;16.25;75.94;97147.59;4897195;29;20049;-77
2021/06/10 00:09:39;;;;;;;11.13;9.63;;;;;;;16.22;75.79;97147.97;4896904;29;20507;-77
2021/06/10 00:12:09;;;;;;;9.65;8.63;;;;;;;16.21;75.94;97141.09;4896786;29;20063;-77
2021/06/10 00:14:36;;;;;;;10.40;9.40;;;;;;;16.24;77.39;97153.84;4896293;29;20056;-77
2021/06/10 00:17:04;;;;;;;13.90;9.80;;;;;;;16.26;76.29;97152.63;4896978;29;20056;-77
2021/06/10 00:19:31;;;;;;;11.90;9.18;;;;;;;16.24;75.73;97153.84;4898473;29;20131;-77
2021/06/10 00:21:58;;;;;;;12.18;9.55;;;;;;;16.23;75.76;97157.50;4900411;29;20064;-77
2021/06/10 00:24:25;;;;;;;9.85;8.95;;;;;;;16.21;75.62;97154.28;4900178;29;20060;-77
2021/06/10 00:26:53;;;;;;;10.07;9.07;;;;;;;16.21;75.79;97151.63;4899903;29;20055;-77
2021/06/10 00:29:21;;;;;;;11.48;9.48;;;;;;;16.18;75.63;97150.22;4900038;29;20056;-76
2021/06/10 00:31:48;;;;;;;11.32;10.13;;;;;;;16.22;77.94;97154.06;4900091;29;20083;-76
2021/06/10 00:34:15;;;;;;;10.30;8.38;;;;;;;16.27;77.21;97158.72;4899577;29;20068;-76
2021/06/10 00:36:43;;;;;;;9.65;8.65;;;;;;;16.29;77.07;97156.69;4899667;29;20049;-76
2021/06/10 00:39:10;;;;;;;12.00;10.80;;;;;;;16.34;78.78;97163.97;4899544;29;20056;-76
2021/06/10 00:41:38;;;;;;;10.50;9.40;;;;;;;16.33;77.63;97162.34;4899500;29;20049;-76
2021/06/10 00:44:07;;;;;;;10.82;9.45;;;;;;;16.31;76.84;97162.56;4899473;29;20049;-76
2021/06/10 00:46:36;;;;;;;11.23;10.13;;;;;;;16.36;80.00;97165.38;4899779;29;20521;-76
2021/06/10 00:49:04;;;;;;;11.75;10.20;;;;;;;16.42;80.44;97166.38;4899772;29;20086;-76
2021/06/10 00:51:31;;;;;;;10.82;9.77;;;;;;;16.46;81.25;97157.88;4899601;29;20048;-76
2021/06/10 00:53:59;;;;;;;10.75;9.23;;;;;;;16.43;77.82;97153.03;4903111;29;20514;-75
2021/06/10 00:56:27;;;;;;;10.68;9.57;;;;;;;16.37;76.56;97153.84;4909082;29;20052;-75
2021/06/10 00:58:54;;;;;;;10.60;9.32;;;;;;;16.31;76.34;97152.03;4907190;29;20122;-76
2021/06/10 01:01:22;;;;;;;18.13;10.90;;;;;;;16.26;75.71;97159.72;4899665;29;20052;-76
2021/06/10 01:03:50;;;;;;;11.30;9.85;;;;;;;16.23;76.02;97149.63;4899571;29;20423;-77
2021/06/10 01:06:24;;;;;;;11.32;9.80;;;;;;;16.20;75.62;97157.91;4904207;29;20060;-78
2021/06/10 01:08:58;;;;;;;11.10;9.95;;;;;;;16.14;75.28;97150.84;4907472;29;20100;-77
2021/06/10 01:11:35;;;;;;;12.98;11.20;;;;;;;16.09;75.41;97155.88;4901785;29;20044;-76
2021/06/10 01:14:11;;;;;;;13.05;10.93;;;;;;;16.04;75.46;97162.56;4899103;29;20542;-76
2021/06/10 01:16:43;;;;;;;14.95;11.25;;;;;;;16.03;75.48;97163.59;4899443;29;20135;-77
2021/06/10 01:19:17;;;;;;;11.98;10.70;;;;;;;16.03;76.75;97162.78;4899629;29;20382;-77
2021/06/10 01:21:45;;;;;;;13.30;11.27;;;;;;;16.02;75.81;97161.16;4899652;29;20059;-75
2021/06/10 01:24:24;;;;;;;14.23;11.90;;;;;;;16.04;78.59;97167.81;4898674;29;20443;-76
2021/06/10 01:26:59;;;;;;;14.63;12.30;;;;;;;16.10;79.33;97168.84;4901361;29;20060;-78
2021/06/10 01:29:28;;;;;;;14.27;12.77;;;;;;;16.06;76.60;97168.44;4903643;29;20108;-77
2021/06/10 01:31:55;;;;;;;16.40;13.27;;;;;;;16.04;76.27;97169.66;4904261;29;20056;-77
2021/06/10 01:34:24;;;;;;;14.30;12.80;;;;;;;16.09;78.83;97166.41;4902870;29;20059;-77
2021/06/10 01:36:54;;;;;;;16.25;12.50;;;;;;;16.14;78.68;97164.81;4903913;29;20063;-77
2021/06/10 01:39:25;;;;;;;14.32;12.05;;;;;;;16.11;76.29;97167.81;4904253;29;20060;-77
2021/06/10 01:41:54;;;;;;;13.88;11.75;;;;;;;16.07;76.38;97156.09;4903236;29;20049;-76
2021/06/10 01:44:22;;;;;;;12.85;11.00;;;;;;;16.05;76.25;97155.50;4902383;29;20064;-77
2021/06/10 01:46:52;;;;;;;17.55;12.95;;;;;;;16.01;75.90;97155.09;4901597;29;20472;-77
2021/06/10 01:49:21;;;;;;;14.13;12.10;;;;;;;16.02;77.59;97161.16;4903989;29;20045;-77
2021/06/10 01:51:49;;;;;;;15.38;12.05;;;;;;;16.05;78.07;97156.31;4903718;29;20056;-77
2021/06/10 01:54:17;;;;;;;16.60;13.75;;;;;;;16.11;78.56;97149.41;4902207;29;20048;-77
2021/06/10 01:56:46;;;;;;;14.95;12.23;;;;;;;16.08;76.25;97155.09;4903194;29;20049;-77
2021/06/10 01:59:15;;;;;;;16.88;12.77;;;;;;;16.04;77.97;97138.88;4903002;29;20056;-77
2021/06/10 02:01:44;;;;;;;16.08;13.27;;;;;;;16.03;77.39;97147.78;4902254;29;20048;-76
2021/06/10 02:04:14;;;;;;;15.07;12.40;;;;;;;15.98;76.22;97142.34;4902250;29;20052;-77
2021/06/10 02:06:42;;;;;;;15.48;12.88;;;;;;;15.94;76.14;97137.66;4903013;29;20060;-77
2021/06/10 02:09:10;;;;;;;15.48;13.20;;;;;;;15.91;77.80;97149.41;4903217;29;20055;-77
2021/06/10 02:11:39;;;;;;;19.80;14.80;;;;;;;15.92;79.12;97145.78;4902830;29;20048;-77
2021/06/10 02:14:07;;;;;;;16.90;13.45;;;;;;;15.92;78.24;97151.03;4903439;29;20507;-77
2021/06/10 02:16:39;;;;;;;15.07;13.38;;;;;;;15.99;79.98;97143.16;4903032;29;20053;-77
2021/06/10 02:19:07;;;;;;;19.92;15.93;;;;;;;16.03;78.70;97137.28;4901931;29;20048;-77
2021/06/10 02:21:35;;;;;;;17.48;13.18;;;;;;;16.00;77.83;97137.66;4903025;29;20052;-77
2021/06/10 02:24:02;;;;;;;16.98;14.43;;;;;;;15.98;78.15;97142.34;4901735;29;20059;-77
2021/06/10 02:26:29;;;;;;;18.20;13.93;;;;;;;15.98;77.40;97139.72;4902372;29;20057;-78
2021/06/10 02:28:57;;;;;;;18.00;14.68;;;;;;;15.99;77.80;97141.31;4902548;29;20060;-77
2021/06/10 02:31:24;;;;;;;17.25;14.48;;;;;;;16.00;78.33;97137.66;4902960;29;20059;-77
2021/06/10 02:33:51;;;;;;;14.82;13.23;;;;;;;15.99;78.18;97136.06;4902006;29;20100;-77
2021/06/10 02:36:19;;;;;;;21.08;14.40;;;;;;;16.02;78.44;97137.47;4902821;29;20052;-77
2021/06/10 02:38:51;;;;;;;18.73;15.80;;;;;;;16.07;81.62;97132.44;4902348;29;20108;-78
2021/06/10 02:41:22;;;;;;;18.77;15.23;;;;;;;16.09;81.55;97130.38;4901103;29;20443;-76
2021/06/10 02:43:51;;;;;;;19.40;14.40;;;;;;;16.01;77.35;97128.75;4897427;29;20056;-76
2021/06/10 02:46:20;;;;;;;19.50;14.95;;;;;;;16.00;80.32;97131.59;4899643;29;20076;-76
2021/06/10 02:48:49;;;;;;;15.75;13.68;;;;;;;15.99;78.23;97136.06;4904273;29;20052;-75
2021/06/10 02:51:17;;;;;;;16.40;13.55;;;;;;;15.98;78.24;97142.34;4909314;29;20064;-77
2021/06/10 02:53:46;;;;;;;16.67;14.13;;;;;;;15.95;77.03;97132.22;4904678;29;20056;-76
2021/06/10 02:56:16;;;;;;;17.52;14.02;;;;;;;15.89;76.56;97135.63;4903042;29;20064;-77
2021/06/10 02:58:45;;;;;;;17.30;14.30;;;;;;;15.86;77.46;97136.84;4903220;29;20479;-77
2021/06/10 03:01:12;;;;;;;20.17;15.73;;;;;;;15.86;78.48;97144.75;4902636;29;20049;-77
2021/06/10 03:03:42;;;;;;;17.42;14.63;;;;;;;15.86;77.44;97130.78;4900917;29;20108;-77
2021/06/10 03:06:10;;;;;;;18.90;13.02;;;;;;;15.85;77.34;97134.41;4902599;29;20047;-77
2021/06/10 03:08:39;;;;;;;16.63;12.45;;;;;;;15.83;76.64;97125.91;4899601;29;20059;-77
2021/06/10 03:11:07;;;;;;;16.15;12.77;;;;;;;15.80;76.29;97136.84;4902466;29;20079;-77
2021/06/10 03:13:38;;;;;;;16.48;13.52;;;;;;;15.79;76.83;97135.25;4901199;29;20487;-77
2021/06/10 03:16:07;;;;;;;15.45;12.77;;;;;;;15.76;77.04;97130.38;4902960;29;20052;-77
2021/06/10 03:18:34;;;;;;;18.08;14.18;;;;;;;15.77;78.19;97134.63;4901205;29;20139;-77
2021/06/10 03:21:02;;;;;;;19.95;14.48;;;;;;;15.72;76.71;97137.03;4902325;29;20064;-77
2021/06/10 03:23:30;;;;;;;17.45;14.70;;;;;;;15.72;78.92;97129.16;4900122;29;20467;-77
2021/06/10 03:26:00;;;;;;;15.45;13.43;;;;;;;15.72;76.62;97134.41;4898503;29;20056;-78
2021/06/10 03:28:28;;;;;;;17.98;13.50;;;;;;;15.69;76.25;97129.53;4900597;29;20083;-78
2021/06/10 03:30:57;;;;;;;15.98;14.23;;;;;;;15.73;79.16;97130.78;4899952;29;20056;-78
2021/06/10 03:33:25;;;;;;;18.80;14.20;;;;;;;15.78;79.75;97138.88;4898959;29;20627;-77
2021/06/10 03:35:54;;;;;;;19.92;15.13;;;;;;;15.86;80.88;97131.59;4897406;29;20132;-76
2021/06/10 03:38:22;;;;;;;17.00;15.18;;;;;;;15.88;79.56;97133.22;4896691;29;20531;-76
2021/06/10 03:40:50;;;;;;;16.73;14.75;;;;;;;15.89;79.06;97140.91;4896578;29;20526;-75
2021/06/10 03:43:18;;;;;;;19.70;16.05;;;;;;;15.94;80.46;97133.22;4896751;29;20056;-76
2021/06/10 03:45:45;;;;;;;18.33;13.52;;;;;;;15.94;78.98;97137.66;4896720;29;20049;-76
2021/06/10 03:48:14;;;;;;;16.27;13.20;;;;;;;15.90;77.90;97132.00;4896976;29;20051;-76
2021/06/10 03:50:43;;;;;;;17.05;13.15;;;;;;;15.84;77.24;97131.00;4896911;29;20052;-76
2021/06/10 03:53:10;;;;;;;17.25;13.23;;;;;;;15.85;78.64;97137.88;4897493;29;20061;-76
2021/06/10 03:55:38;;;;;;;14.70;13.05;;;;;;;15.84;77.31;97133.63;4900592;29;20057;-75
2021/06/10 03:58:05;;;;;;;14.68;13.07;;;;;;;15.80;76.60;97137.66;4900506;29;20448;-75
2021/06/10 04:00:32;;;;;;;16.17;12.95;;;;;;;15.78;76.19;97131.78;4906178;29;20056;-77
2021/06/10 04:03:00;;;;;;;15.80;14.15;;;;;;;15.81;79.05;97126.16;4906690;29;20052;-77
2021/06/10 04:05:30;;;;;;;16.02;13.52;;;;;;;15.85;78.95;97127.34;4905689;29;20080;-77
2021/06/10 04:07:59;;;;;;;16.42;14.18;;;;;;;15.89;79.09;97132.22;4902865;29;20056;-77
2021/06/10 04:10:26;;;;;;;15.07;13.15;;;;;;;15.86;77.64;97128.16;4901080;29;20052;-76
2021/06/10 04:12:53;;;;;;;17.33;13.75;;;;;;;15.85;77.57;97126.53;4901058;29;20418;-76
2021/06/10 04:15:21;;;;;;;17.38;13.82;;;;;;;15.86;78.45;97126.34;4901774;29;20056;-76
2021/06/10 04:17:48;;;;;;;14.20;12.52;;;;;;;15.86;76.78;97126.34;4908102;29;20049;-76
2021/06/10 04:20:16;;;;;;;17.13;13.52;;;;;;;15.88;78.50;97122.72;4909636;29;20084;-76
2021/06/10 04:22:45;;;;;;;17.40;13.38;;;;;;;15.91;78.89;97127.56;4902666;29;20203;-78
2021/06/10 04:25:12;;;;;;;17.15;14.77;;;;;;;15.97;80.24;97138.06;4901532;29;20060;-78
2021/06/10 04:27:39;;;;;;;22.02;15.13;;;;;;;15.98;78.39;97134.44;4901408;29;20048;-78
2021/06/10 04:30:09;;;;;;;18.83;15.35;;;;;;;15.97;77.93;97132.81;4907650;29;20056;-76
2021/06/10 04:32:36;;;;;;;19.20;16.10;;;;;;;16.01;80.43;97127.97;4902836;29;20563;-76
2021/06/10 04:35:04;;;;;;;22.58;17.75;;;;;;;16.05;79.03;97124.72;4903800;29;20055;-78
2021/06/10 04:37:31;;;;;;;16.35;13.82;;;;;;;16.07;77.70;97121.91;4901724;29;20503;-77
2021/06/10 04:40:00;;;;;;;18.58;16.60;;;;;;;16.12;80.80;97123.91;4900484;29;20045;-76
2021/06/10 04:42:27;;;;;;;18.23;15.10;;;;;;;16.16;80.55;97123.31;4900629;29;20048;-76
2021/06/10 04:44:54;;;;;;;15.50;13.75;;;;;;;16.16;78.48;97125.94;4900685;29;20060;-76
2021/06/10 04:47:21;;;;;;;17.73;13.50;;;;;;;16.14;77.40;97122.69;4900392;29;20055;-76
2021/06/10 04:49:48;;;;;;;16.90;13.77;;;;;;;16.11;77.33;97127.53;4900061;29;20052;-77
2021/06/10 04:52:15;;;;;;;18.67;15.02;;;;;;;16.08;77.34;97127.97;4901049;29;20064;-76
2021/06/10 04:54:42;;;;;;;18.42;16.27;;;;;;;16.07;77.60;97116.63;4900386;29;20525;-77
2021/06/10 04:57:10;;;;;;;17.50;14.95;;;;;;;16.08;77.69;97128.75;4900694;29;20408;-76
2021/06/10 04:59:37;;;;;;;17.58;15.23;;;;;;;16.10;77.80;97128.56;4900532;29;20045;-76
2021/06/10 05:02:05;;;;;;;17.20;15.40;;;;;;;16.11;77.55;97117.00;4900407;29;20049;-76
2021/06/10 05:04:33;;;;;;;18.88;14.70;;;;;;;16.14;78.11;97127.16;4899566;29;20555;-76
2021/06/10 05:07:00;;;;;;;19.63;16.55;;;;;;;16.22;79.73;97119.03;4900631;29;20053;-77
2021/06/10 05:09:27;;;;;;;18.88;14.35;;;;;;;16.27;78.66;97116.59;4900699;29;20048;-76
2021/06/10 05:11:54;;;;;;;19.52;15.32;;;;;;;16.31;78.48;97119.63;4900186;29;20049;-76
2021/06/10 05:14:22;;;;;;;16.40;14.63;;;;;;;16.39;79.37;97128.09;4902462;29;20056;-77
2021/06/10 05:16:50;;;;;;;20.48;16.27;;;;;;;16.50;80.62;97120.59;4900239;29;20853;-77
2021/06/10 05:19:17;;;;;;;21.75;16.58;;;;;;;16.58;81.08;97115.13;4900386;29;20060;-78
2021/06/10 05:21:44;;;;;;;21.02;16.17;;;;;;;16.66;81.48;97114.88;4899298;29;20053;-77
2021/06/10 05:24:13;;;;;;;17.45;14.93;;;;;;;16.74;81.06;97119.91;4900558;29;20056;-76
2021/06/10 05:26:41;;;;;;;22.58;14.93;;;;;;;16.80;80.46;97121.75;4900969;29;20123;-77
2021/06/10 05:29:08;;;;;;;21.27;17.35;;;;;;;16.86;81.10;97117.50;4900456;29;20503;-77
2021/06/10 05:31:37;;;;;;;21.38;17.35;;;;;;;16.91;82.10;97117.66;4902858;29;20056;-77
2021/06/10 05:34:04;;;;;;;19.40;15.80;;;;;;;16.93;80.08;97120.09;4900073;29;20056;-77
2021/06/10 05:36:31;;;;;;;17.80;15.35;;;;;;;16.96;79.83;97125.75;4899436;29;20476;-82
2021/06/10 05:38:58;;;;;;;19.05;16.55;;;;;;;17.01;80.10;97130.38;4899839;29;20044;-79
2021/06/10 05:41:25;;;;;;;19.83;14.20;;;;;;;17.01;79.30;97125.94;4902374;29;20052;-81
2021/06/10 05:43:53;;;;;;;18.52;16.52;;;;;;;17.08;80.58;97118.81;4937379;29;20055;-81
2021/06/10 05:46:20;;;;;;;18.88;15.65;;;;;;;17.14;79.22;97127.69;4914705;29;20055;-79
2021/06/10 05:48:49;;;;;;;20.95;15.45;;;;;;;17.16;78.37;97130.91;4899034;29;20053;-79
2021/06/10 05:51:17;;;;;;;20.30;17.00;;;;;;;17.22;80.35;97135.34;4925196;29;20068;-79
2021/06/10 05:53:44;;;;;;;25.40;17.58;;;;;;;17.29;80.62;97133.50;4921835;29;20052;-77
2021/06/10 05:56:11;;;;;;;23.63;17.77;;;;;;;17.38;80.82;97135.88;4936493;29;20510;-78
2021/06/10 05:58:38;;;;;;;19.85;16.60;;;;;;;17.43;80.42;97133.44;4937216;29;20044;-78
2021/06/10 06:01:05;;;;;;;20.13;17.40;;;;;;;17.48;81.00;97139.66;4937536;29;20059;-77
2021/06/10 06:03:32;;;;;;;17.95;16.15;;;;;;;17.54;80.17;97137.22;4939503;29;20051;-79
2021/06/10 06:06:01;;;;;;;19.15;15.93;;;;;;;17.58;79.65;97147.13;4937642;29;20054;-80
2021/06/10 06:08:30;;;;;;;18.85;15.45;;;;;;;17.61;78.85;97143.25;4919755;29;20060;-79
2021/06/10 06:10:57;;;;;;;22.70;16.90;;;;;;;17.67;78.84;97143.22;4911739;29;20056;-77
2021/06/10 06:13:32;;;;;;;23.35;17.65;;;;;;;17.74;79.67;97145.00;4911902;29;20529;-77
2021/06/10 06:16:05;;;;;;;20.50;15.63;;;;;;;17.81;79.54;97149.19;4915820;29;20075;-77
2021/06/10 06:18:34;;;;;;;21.55;16.23;;;;;;;17.89;79.18;97148.16;4917177;29;20555;-77
2021/06/10 06:21:02;;;;;;;19.80;16.60;;;;;;;17.92;77.82;97153.00;4916677;29;20495;-76
2021/06/10 06:23:31;;;;;;;18.70;16.45;;;;;;;17.97;78.60;97155.81;4921220;29;20509;-77
2021/06/10 06:25:58;;;;;;;21.65;17.23;;;;;;;18.05;79.41;97157.38;4929141;29;20055;-79
2021/06/10 06:28:25;;;;;;;20.67;18.50;;;;;;;18.10;79.38;97158.38;4929422;29;20052;-77
2021/06/10 06:30:53;;;;;;;20.27;16.00;;;;;;;18.18;77.99;97159.09;4918762;29;20056;-77
2021/06/10 06:33:20;;;;;;;20.52;16.67;;;;;;;18.22;76.92;97160.28;4917114;29;20052;-77
2021/06/10 06:35:48;;;;;;;22.38;17.60;;;;;;;18.27;76.40;97163.88;4916492;29;20059;-78
2021/06/10 06:38:16;;;;;;;19.48;16.02;;;;;;;18.32;75.87;97165.88;4916722;29;20059;-77
2021/06/10 06:40:43;;;;;;;19.25;16.20;;;;;;;18.40;76.13;97167.44;4916799;29;20051;-77
2021/06/10 06:43:11;;;;;;;18.95;15.65;;;;;;;18.46;75.75;97169.22;4916487;29;20068;-77
2021/06/10 06:45:38;;;;;;;18.80;15.52;;;;;;;18.53;75.68;97172.59;4916679;29;20059;-78
2021/06/10 06:48:06;;;;;;;18.98;15.43;;;;;;;18.61;75.47;97174.16;4917743;29;20091;-77
2021/06/10 06:50:33;;;;;;;18.92;15.98;;;;;;;18.67;75.55;97167.97;4917723;29;20048;-77
2021/06/10 06:53:00;;;;;;;18.13;15.85;;;;;;;18.76;75.03;97171.97;4917750;29;20063;-77
2021/06/10 06:55:29;;;;;;;18.88;16.88;;;;;;;18.84;75.61;97179.63;4917788;29;20514;-78
2021/06/10 06:57:56;;;;;;;18.95;15.98;;;;;;;18.91;74.98;97182.19;4918182;29;20134;-77
2021/06/10 07:00:24;;;;;;;16.92;15.10;;;;;;;18.97;74.81;97177.88;4917309;29;20079;-78
2021/06/10 07:02:51;;;;;;;18.30;16.33;;;;;;;19.04;74.90;97165.38;4926159;29;20052;-78
2021/06/10 07:05:18;;;;;;;18.85;16.63;;;;;;;19.12;75.20;97173.81;4935316;29;20052;-77
2021/06/10 07:07:46;;;;;;;21.83;16.55;;;;;;;19.22;74.76;97175.13;4935216;29;20066;-77
2021/06/10 07:10:14;;;;;;;24.42;18.30;;;;;;;19.28;74.71;97172.38;4935289;29;20079;-78
2021/06/10 07:12:42;;;;;;;18.67;16.67;;;;;;;19.35;74.19;97178.41;4923451;29;20059;-78
2021/06/10 07:15:10;;;;;;;17.67;15.90;;;;;;;19.44;74.25;97170.16;4915287;29;20479;-79
2021/06/10 07:17:37;;;;;;;18.95;16.27;;;;;;;19.52;74.28;97169.84;4916559;29;20059;-79
2021/06/10 07:20:06;;;;;;;17.98;15.73;;;;;;;19.59;74.71;97160.00;4916776;29;20052;-77
2021/06/10 07:22:37;;;;;;;17.50;15.70;;;;;;;19.66;73.70;97163.34;4916274;29;20058;-77
2021/06/10 07:25:06;;;;;;;17.52;15.07;;;;;;;19.72;73.71;97175.72;4915738;29;20399;-77
2021/06/10 07:27:35;;;;;;;16.83;15.13;;;;;;;19.80;73.09;97174.56;4915480;29;20064;-78
2021/06/10 07:30:04;;;;;;;18.58;15.23;;;;;;;19.89;73.08;97177.69;4915713;29;20079;-78
2021/06/10 07:32:31;;;;;;;18.55;15.70;;;;;;;19.96;73.04;97175.75;4916241;29;20063;-78
2021/06/10 07:34:59;;;;;;;15.65;13.77;;;;;;;20.04;72.66;97174.63;4915929;29;20054;-79
2021/06/10 07:37:26;;;;;;;16.90;15.10;;;;;;;20.12;71.82;97172.44;4915582;29;20055;-77
2021/06/10 07:39:53;;;;;;;17.58;14.63;;;;;;;20.22;71.42;97176.38;4915321;29;20052;-78
2021/06/10 07:42:20;;;;;;;15.13;13.02;;;;;;;20.30;71.03;97182.13;4915826;29;20048;-78
2021/06/10 07:44:47;;;;;;;16.15;12.80;;;;;;;20.40;71.30;97181.59;4915676;29;20052;-79
2021/06/10 07:47:15;;;;;;;17.15;13.52;;;;;;;20.48;70.12;97175.91;4915867;29;20048;-78
2021/06/10 07:49:47;;;;;;;16.08;13.63;;;;;;;20.55;71.04;97173.97;4917117;29;20052;-78
2021/06/10 07:52:14;;;;;;;13.35;11.88;;;;;;;20.62;70.22;97178.34;4917215;29;20048;-79
2021/06/10 07:54:41;;;;;;;13.82;12.35;;;;;;;20.69;70.58;97184.38;4916997;29;20434;-78
2021/06/10 07:57:12;;;;;;;12.35;11.15;;;;;;;20.74;69.84;97179.16;4916955;29;20131;-78
2021/06/10 07:59:39;;;;;;;13.45;11.93;;;;;;;20.79;68.43;97189.88;4916802;29;20427;-78
2021/06/10 08:02:08;;;;;;;12.23;10.85;;;;;;;20.86;68.07;97184.44;4916303;29;20056;-77
2021/06/10 08:04:36;;;;;;;11.60;10.35;;;;;;;20.95;68.27;97180.41;4915276;29;20052;-78
2021/06/10 08:07:04;;;;;;;11.35;10.00;;;;;;;21.04;68.14;97180.84;4915521;29;20064;-79
2021/06/10 08:09:32;;;;;;;11.63;10.52;;;;;;;21.11;66.98;97186.81;4915329;29;20537;-78
2021/06/10 08:12:00;;;;;;;12.75;11.27;;;;;;;21.17;66.16;97184.03;4915813;29;20056;-79
2021/06/10 08:14:28;;;;;;;11.95;10.80;;;;;;;21.24;65.32;97175.94;4914783;29;20060;-78
2021/06/10 08:16:55;;;;;;;10.93;9.82;;;;;;;21.33;65.57;97179.84;4915158;29;20056;-78
2021/06/10 08:19:23;;;;;;;12.00;10.75;;;;;;;21.46;65.04;97172.69;4915221;29;20079;-78
2021/06/10 08:21:51;;;;;;;10.93;9.93;;;;;;;21.57;65.05;97175.25;4917295;29;20052;-77
2021/06/10 08:24:19;;;;;;;9.95;9.05;;;;;;;21.68;64.94;97170.94;4918150;29;20070;-80
2021/06/10 08:26:47;;;;;;;11.43;10.13;;;;;;;21.76;65.08;97173.22;4918283;29;20063;-80
2021/06/10 08:29:14;;;;;;;10.75;9.63;;;;;;;21.83;63.61;97173.06;4919727;29;20051;-79
2021/06/10 08:31:42;;;;;;;10.15;9.18;;;;;;;21.90;63.29;97162.28;4918773;29;20067;-79
2021/06/10 08:34:09;;;;;;;10.05;9.07;;;;;;;21.98;63.31;97167.22;4917349;29;20056;-77
2021/06/10 08:36:36;;;;;;;12.90;8.80;;;;;;;22.10;63.70;97167.13;4917641;29;20044;-79
2021/06/10 08:39:05;;;;;;;9.57;8.68;;;;;;;22.21;63.72;97171.53;4918595;29;20134;-80
2021/06/10 08:41:34;;;;;;;9.35;8.45;;;;;;;22.32;63.43;97167.22;4921779;29;20048;-78
2021/06/10 08:44:01;;;;;;;10.50;9.45;;;;;;;22.41;61.42;97168.41;4921074;29;20144;-79
2021/06/10 08:46:31;;;;;;;10.05;8.85;;;;;;;22.52;61.75;97174.69;4921562;29;20051;-79
2021/06/10 08:48:58;;;;;;;9.70;8.80;;;;;;;22.66;62.30;97169.84;4921863;29;20059;-79
2021/06/10 08:51:26;;;;;;;9.60;8.57;;;;;;;22.78;61.80;97174.03;4920602;29;20056;-80
2021/06/10 08:53:56;;;;;;;10.40;9.40;;;;;;;22.86;60.48;97170.13;4919748;29;20447;-78
2021/06/10 08:56:27;;;;;;;10.43;7.82;;;;;;;22.96;59.74;97167.59;4920464;29;20550;-78
2021/06/10 08:58:54;;;;;;;9.95;7.85;;;;;;;23.08;59.93;97162.16;4920657;29;20070;-79
2021/06/10 09:01:21;;;;;;;9.30;7.57;;;;;;;23.20;60.41;97165.50;4920423;29;20059;-78
2021/06/10 09:03:49;;;;;;;8.80;7.90;;;;;;;23.32;60.26;97162.72;4919943;29;20056;-78
2021/06/10 09:06:18;;;;;;;7.75;7.05;;;;;;;23.41;59.08;97165.72;4920343;29;20425;-76
2021/06/10 09:08:46;;;;;;;8.13;7.43;;;;;;;23.48;57.58;97168.19;4920606;29;20063;-78
2021/06/10 09:11:15;;;;;;;8.60;7.68;;;;;;;23.52;57.75;97166.63;4921076;29;20044;-78
2021/06/10 09:13:46;;;;;;;8.15;7.35;;;;;;;23.55;56.33;97176.78;4920135;29;20107;-76
2021/06/10 09:16:20;;;;;;;7.57;6.82;;;;;;;23.56;56.14;97165.09;4919260;29;20131;-78
2021/06/10 09:18:49;;;;;;;8.35;6.65;;;;;;;23.61;57.01;97159.81;4919641;29;20108;-79
2021/06/10 09:21:27;;;;;;;8.60;7.45;;;;;;;23.69;56.30;97161.22;4919143;29;20083;-79
2021/06/10 09:23:55;;;;;;;7.07;6.35;;;;;;;23.81;56.32;97161.88;4920501;29;20130;-77
2021/06/10 09:26:22;;;;;;;7.00;6.45;;;;;;;23.92;56.38;97160.94;4920133;29;20515;-80
2021/06/10 09:29:02;;;;;;;7.43;6.82;;;;;;;24.06;55.77;97166.63;4922135;29;20518;-77
2021/06/10 09:31:31;;;;;;;6.70;6.15;;;;;;;24.18;56.86;97167.28;4919290;29;20048;-78
2021/06/10 09:33:59;;;;;;;7.28;6.68;;;;;;;24.29;54.17;97164.66;4917596;29;20509;-77
2021/06/10 09:36:27;;;;;;;7.53;6.75;;;;;;;24.42;54.06;97172.22;4918106;29;20048;-77
2021/06/10 09:39:08;;;;;;;7.90;6.15;;;;;;;24.58;53.82;97173.19;4918017;29;20052;-78
2021/06/10 09:42:00;;;;;;;5.72;5.13;;;;;;;24.62;51.65;97169.72;4917359;29;20072;-77
2021/06/10 09:44:42;;;;;;;5.90;5.05;;;;;;;24.63;51.91;97162.53;4917436;29;20056;-78
2021/06/10 09:47:09;;;;;;;;;;;;;;;24.65;52.07;97166.53;4918260;29;20052;-79
2021/06/10 09:49:37;;;;;;;7.30;5.68;;;;;;;24.62;50.66;97159.06;4917296;29;20021;-78
2021/06/10 09:52:05;;;;;;;6.55;5.00;;;;;;;24.58;50.58;97157.97;4917618;29;20056;-77
2021/06/10 09:54:44;;;;;;;5.15;4.75;;;;;;;24.59;50.32;97158.75;4924689;29;20048;-81
2021/06/10 09:57:13;;;;;;;7.40;4.40;;;;;;;24.62;49.91;97152.91;4936440;29;20071;-76
2021/06/10 09:59:43;;;;;;;7.10;4.80;;;;;;;24.66;48.83;97165.50;4927708;29;20071;-77
2021/06/10 10:02:20;;;;;;;4.85;4.45;;;;;;;24.73;49.35;97149.25;4917789;29;20052;-79
2021/06/10 10:05:08;;;;;;;6.40;5.50;;;;;;;24.83;50.46;97149.28;4916856;29;20052;-78
2021/06/10 10:07:37;;;;;;;5.30;4.55;;;;;;;24.91;49.81;97145.31;4917023;29;20052;-79
2021/06/10 10:10:08;;;;;;;5.30;4.57;;;;;;;24.95;51.22;97145.59;4916759;29;20139;-77
2021/06/10 10:12:39;;;;;;;5.32;4.82;;;;;;;24.99;48.26;97141.34;4916712;29;20052;-77
2021/06/10 10:15:09;;;;;;;5.13;4.72;;;;;;;25.01;47.25;97140.00;4916978;29;20494;-77
2021/06/10 10:17:36;;;;;;;5.70;5.20;;;;;;;25.06;48.21;97132.03;4917228;29;20138;-79
2021/06/10 10:20:06;;;;;;;6.10;4.65;;;;;;;25.11;47.26;97127.78;4916985;29;20056;-78
2021/06/10 10:22:35;;;;;;;5.20;4.45;;;;;;;25.15;46.58;97128.88;4916759;29;20056;-79
2021/06/10 10:25:04;;;;;;;5.30;4.88;;;;;;;25.16;46.80;97135.81;4915482;29;20067;-78
2021/06/10 10:27:31;;;;;;;4.93;4.50;;;;;;;25.17;48.34;97132.09;4915180;29;20047;-77
2021/06/10 10:29:59;;;;;;;5.30;4.90;;;;;;;25.20;48.32;97129.69;4914945;28;20044;-79
2021/06/10 10:32:30;;;;;;;12.18;4.00;;;;;;;25.23;49.33;97126.53;4917667;29;20059;-76
2021/06/10 10:35:26;;;;;;;4.53;4.10;;;;;;;25.24;47.21;97128.13;4918802;29;20082;-77
2021/06/10 10:37:55;;;;;;;8.20;4.70;;;;;;;25.21;47.43;97122.50;4918363;29;20074;-77
2021/06/10 10:40:23;;;;;;;4.20;3.80;;;;;;;25.18;46.92;97123.00;4918209;29;20051;-77
2021/06/10 10:42:52;;;;;;;4.15;3.85;;;;;;;25.14;45.68;97117.38;4917169;29;20064;-77
2021/06/10 10:45:22;;;;;;;7.28;4.15;;;;;;;25.15;45.79;97107.50;4916961;29;20059;-76
2021/06/10 10:48:00;;;;;;;5.18;3.88;;;;;;;25.16;45.56;97109.91;4917406;29;20526;-77
2021/06/10 10:50:32;;;;;;;4.88;4.38;;;;;;;25.24;46.66;97100.63;4917242;29;20044;-76
2021/06/10 10:53:00;;;;;;;4.75;4.35;;;;;;;25.29;45.80;97103.28;4916764;29;20430;-76
2021/06/10 10:55:31;;;;;;;4.57;4.20;;;;;;;25.31;45.53;97101.16;4916044;29;20430;-76
2021/06/10 10:58:00;;;;;;;4.22;3.92;;;;;;;25.31;44.84;97103.03;4918008;29;20062;-77
2021/06/10 11:00:47;;;;;;;4.00;3.70;;;;;;;25.29;44.70;97103.28;4899201;29;20522;-77
2021/06/10 11:03:18;;;;;;;4.18;3.88;;;;;;;25.28;43.89;97099.03;4902224;29;20119;-78
2021/06/10 11:05:46;;;;;;;4.57;4.17;;;;;;;25.28;44.75;97094.47;4919250;29;20147;-80
2021/06/10 11:08:14;;;;;;;4.35;4.03;;;;;;;25.33;44.36;97087.56;4919373;29;20482;-80
2021/06/10 11:11:03;;;;;;;4.28;3.65;;;;;;;25.32;44.22;97092.09;4921695;29;20052;-78
2021/06/10 11:13:32;;;;;;;3.75;3.45;;;;;;;25.31;43.36;97100.38;4918297;29;20056;-79
2021/06/10 11:16:02;;;;;;;3.85;3.55;;;;;;;25.25;43.47;97095.03;4921399;29;20059;-78
2021/06/10 11:18:45;;;;;;;4.13;3.58;;;;;;;25.20;43.82;97094.19;4919360;29;20135;-79
2021/06/10 11:21:16;;;;;;;5.60;4.10;;;;;;;25.19;45.92;97097.88;4918150;29;20055;-78
2021/06/10 11:24:12;;;;;;;4.70;4.40;;;;;;;25.13;47.74;97105.09;4919473;29;20648;-78
2021/06/10 11:26:47;;;;;;;5.20;4.70;;;;;;;25.06;49.73;97109.88;4900356;29;20052;-77
2021/06/10 11:29:15;;;;;;;6.68;5.40;;;;;;;24.98;49.39;97113.06;4916893;29;20052;-79
2021/06/10 11:31:43;;;;;;;8.57;6.70;;;;;;;24.87;50.54;97114.88;4916140;29;20055;-77